Accueil
METAR-TAF:

METAR-TAF

Aéroports :

Aéroport de Dundee

Dundee, Écosse

latitude: 56-27N, longitude: 003-01W, altitude: 4 m

Observation

Le bulletin a été fait il y a 47 minutes, à 14:50 UTC
Vent 8 kt de est/sud-est
Température 8°C
Humidité 71%
Pression 1017 hPa
Visibilité 10 km ou plus
Quelques nuages à une hauteur de 2000 ft
Nuages épars à une hauteur de 4200 ft

METAR: EGPN 171450Z 12008KT 9999 FEW020 SCT042 08/03 Q1017

Heure: 16:37 (15:37 UTC)

Prévision

Le bulletin a été fait il y a 1 heure et 35 minutes, à 14:02 UTC
Prévision valable du 17 à 15 UTC au 17 à 21 UTC
Vent 9 kt de est/nord-est
Visibilité 10 km ou plus
Nuages épars à une hauteur de 4000 ft

TAF: EGPN 171402Z 1715/1721 06009KT 9999 SCT040

Observations et prévisions météorologiques de plus de 4000 aéroports (messages METAR et TAF).

Les stations disponibles sont représentées par des disques jaunes et rouges sur la carte.

Passer la souris dessus pour voir le nom de la station.

Cliquer dessus pour voir les observations et prévisions météorologiques.

Pour changer de carte: cliquez sur les boutons verts avec une croix noire pour zoomer, sur le bouton vert avec un tiret pour effectuer un zoom arrière, ou sur les flèches vertes pour les cartes adjacentes.


METAR-TAF: